createdAt,value
2022-09-14T00:00:24.133Z,21.35
2022-09-14T00:02:57.030Z,21.34
2022-09-14T00:05:31.050Z,21.32
2022-09-14T00:08:04.039Z,21.32
2022-09-14T00:10:39.130Z,21.34
2022-09-14T00:13:13.312Z,21.25
2022-09-14T00:15:46.782Z,21.33
2022-09-14T00:18:19.478Z,21.28
2022-09-14T00:20:53.894Z,21.26
2022-09-14T00:23:26.580Z,21.28
2022-09-14T00:26:03.710Z,21.21
2022-09-14T00:28:38.911Z,21.14
2022-09-14T00:31:12.272Z,21.21
2022-09-14T00:33:47.287Z,21.16
2022-09-14T00:36:24.741Z,21.20
2022-09-14T00:38:58.295Z,21.20
2022-09-14T00:41:33.186Z,21.14
2022-09-14T00:44:08.753Z,21.14
2022-09-14T00:46:44.104Z,21.18
2022-09-14T00:49:19.604Z,21.18
2022-09-14T00:51:59.876Z,21.10
2022-09-14T00:54:32.738Z,21.03
2022-09-14T00:57:06.196Z,21.08
2022-09-14T00:59:40.609Z,21.08
2022-09-14T01:02:15.781Z,21.03
2022-09-14T01:04:50.046Z,21.09
2022-09-14T01:07:46.305Z,21.04
2022-09-14T01:10:29.713Z,20.98
2022-09-14T01:13:08.924Z,21.05
2022-09-14T01:16:03.835Z,21.08
2022-09-14T01:18:40.451Z,20.95
2022-09-14T01:21:17.041Z,20.95
2022-09-14T01:23:58.289Z,20.99
2022-09-14T01:27:24.368Z,21.02
2022-09-14T01:30:05.893Z,20.93
2022-09-14T01:32:43.963Z,20.95
2022-09-14T01:35:24.070Z,20.92
2022-09-14T01:38:01.616Z,20.94
2022-09-14T01:40:38.299Z,20.94
2022-09-14T01:43:15.663Z,20.90
2022-09-14T01:45:52.933Z,20.96
2022-09-14T01:48:35.946Z,20.83
2022-09-14T01:51:15.347Z,20.82
2022-09-14T01:53:51.021Z,20.82
2022-09-14T01:56:31.985Z,20.79
2022-09-14T01:59:10.426Z,20.83
2022-09-14T02:01:50.631Z,20.76
2022-09-14T02:04:30.420Z,20.78
2022-09-14T02:07:03.792Z,20.76
2022-09-14T02:09:36.625Z,20.82
2022-09-14T02:12:09.903Z,20.68
2022-09-14T02:14:43.890Z,20.67
2022-09-14T02:17:18.047Z,20.72
2022-09-14T02:19:55.119Z,20.71
2022-09-14T02:22:30.070Z,20.68
2022-09-14T02:25:03.075Z,20.72
2022-09-14T02:27:35.843Z,20.72
2022-09-14T02:30:10.032Z,20.66
2022-09-14T02:32:56.388Z,20.73
2022-09-14T02:35:37.196Z,20.68
2022-09-14T02:38:18.030Z,20.67
2022-09-14T02:40:58.020Z,20.69
2022-09-14T02:43:39.506Z,20.72
2022-09-14T02:46:18.377Z,20.64
2022-09-14T02:48:59.084Z,20.65
2022-09-14T02:51:35.302Z,20.68
2022-09-14T02:54:12.764Z,20.61
2022-09-14T02:56:46.083Z,20.60
2022-09-14T02:59:19.059Z,20.62
2022-09-14T03:01:51.597Z,20.60
2022-09-14T03:04:25.637Z,20.59
2022-09-14T03:06:58.305Z,20.54
2022-09-14T03:09:30.989Z,20.53
2022-09-14T03:12:04.274Z,20.56
2022-09-14T03:14:36.974Z,20.55
2022-09-14T03:17:09.732Z,20.49
2022-09-14T03:19:43.774Z,20.44
2022-09-14T03:22:16.584Z,20.44
2022-09-14T03:24:49.463Z,20.48
2022-09-14T03:27:22.100Z,20.47
2022-09-14T03:29:55.198Z,20.47
2022-09-14T03:32:27.842Z,20.49
2022-09-14T03:35:02.255Z,20.44
2022-09-14T03:37:38.360Z,20.50
2022-09-14T03:40:15.983Z,20.47
2022-09-14T03:42:52.774Z,20.44
2022-09-14T03:45:25.833Z,20.41
2022-09-14T03:47:58.337Z,20.44
2022-09-14T03:50:32.738Z,20.45
2022-09-14T03:53:05.420Z,20.36
2022-09-14T03:55:41.045Z,20.35
2022-09-14T03:58:13.625Z,20.37
2022-09-14T04:00:46.286Z,20.39
2022-09-14T04:03:19.281Z,20.31
2022-09-14T04:05:57.224Z,20.37
2022-09-14T04:08:29.956Z,20.33
2022-09-14T04:11:07.914Z,20.38
2022-09-14T04:13:41.465Z,20.40
2022-09-14T04:16:15.090Z,20.43
2022-09-14T04:18:48.392Z,20.40
2022-09-14T04:21:25.146Z,20.42
2022-09-14T04:24:15.885Z,20.37
2022-09-14T04:26:49.081Z,20.39
2022-09-14T04:29:21.844Z,20.38
2022-09-14T04:31:54.831Z,20.37
2022-09-14T04:34:27.558Z,20.32
2022-09-14T04:37:01.661Z,20.33
2022-09-14T04:39:34.401Z,20.32
2022-09-14T04:42:08.102Z,20.36
2022-09-14T04:44:41.110Z,20.33
2022-09-14T04:47:13.691Z,20.31
2022-09-14T04:49:46.387Z,20.32
2022-09-14T04:52:20.426Z,20.30
2022-09-14T04:54:53.093Z,20.37
2022-09-14T04:57:25.905Z,20.34
2022-09-14T04:59:58.586Z,20.28
2022-09-14T05:02:31.956Z,20.32
2022-09-14T05:05:05.282Z,20.25
2022-09-14T05:07:39.250Z,20.25
2022-09-14T05:10:11.940Z,20.20
2022-09-14T05:12:44.590Z,20.26
2022-09-14T05:15:17.366Z,20.25
2022-09-14T05:17:50.339Z,20.23
2022-09-14T05:20:22.860Z,20.12
2022-09-14T05:22:57.258Z,20.14
2022-09-14T05:25:29.897Z,20.13
2022-09-14T05:28:03.219Z,20.11
2022-09-14T05:30:35.947Z,20.12
2022-09-14T05:33:09.214Z,20.16
2022-09-14T05:35:41.858Z,20.12
2022-09-14T05:38:15.928Z,20.08
2022-09-14T05:40:48.573Z,20.12
2022-09-14T05:43:22.616Z,20.13
2022-09-14T05:45:55.323Z,20.13
2022-09-14T05:48:27.979Z,20.11
2022-09-14T05:51:01.261Z,20.12
2022-09-14T05:53:35.671Z,20.15
2022-09-14T05:56:10.682Z,20.10
2022-09-14T05:58:44.025Z,20.08
2022-09-14T06:01:19.434Z,20.05
2022-09-14T06:03:54.871Z,20.10
2022-09-14T06:06:27.962Z,20.06
2022-09-14T06:09:01.944Z,20.03
2022-09-14T06:11:37.302Z,20.03
2022-09-14T06:14:10.039Z,20.08
2022-09-14T06:16:42.689Z,20.08
2022-09-14T06:19:16.353Z,20.04
2022-09-14T06:21:51.487Z,20.07
2022-09-14T06:24:26.073Z,20.04
2022-09-14T06:26:59.897Z,20.09
2022-09-14T06:29:33.604Z,20.04
2022-09-14T06:32:07.462Z,20.06
2022-09-14T06:34:41.111Z,20.11
2022-09-14T06:37:14.063Z,20.11
2022-09-14T06:39:48.049Z,20.11
2022-09-14T06:42:20.850Z,20.08
2022-09-14T06:44:57.920Z,20.09
2022-09-14T06:47:33.018Z,20.09
2022-09-14T06:50:06.978Z,20.04
2022-09-14T06:52:40.156Z,20.13
2022-09-14T06:55:14.221Z,20.12
2022-09-14T06:57:49.181Z,20.12
2022-09-14T07:00:21.953Z,20.08
2022-09-14T07:02:56.586Z,20.13
2022-09-14T07:05:29.281Z,20.09
2022-09-14T07:08:02.255Z,20.15
2022-09-14T07:10:36.321Z,20.13
2022-09-14T07:13:08.932Z,20.10
2022-09-14T07:15:49.456Z,20.16
2022-09-14T07:18:22.387Z,20.11
2022-09-14T07:20:55.134Z,20.10
2022-09-14T07:23:27.757Z,20.20
2022-09-14T07:26:03.759Z,20.12
2022-09-14T07:28:37.875Z,20.15
2022-09-14T07:31:17.019Z,20.11
2022-09-14T07:33:53.269Z,20.09
2022-09-14T07:36:29.523Z,20.15
2022-09-14T07:39:07.088Z,20.17
2022-09-14T07:41:41.688Z,20.12
2022-09-14T07:44:16.481Z,20.12
2022-09-14T07:46:49.425Z,20.18
2022-09-14T07:49:22.661Z,20.10
2022-09-14T07:51:55.282Z,20.17
2022-09-14T07:54:27.966Z,20.14
2022-09-14T07:57:02.160Z,20.10
2022-09-14T07:59:36.542Z,20.13
2022-09-14T08:02:12.067Z,20.20
2022-09-14T08:04:44.803Z,20.17
2022-09-14T08:07:17.510Z,20.10
2022-09-14T08:09:50.150Z,20.15
2022-09-14T08:12:24.215Z,20.15
2022-09-14T08:14:56.810Z,20.18
2022-09-14T08:17:29.445Z,20.24
2022-09-14T08:20:02.093Z,20.26
2022-09-14T08:22:35.375Z,20.20
2022-09-14T08:25:08.662Z,20.26
2022-09-14T08:27:43.152Z,20.30
2022-09-14T08:30:15.978Z,20.32
2022-09-14T08:32:48.659Z,20.28
2022-09-14T08:35:35.441Z,20.34
2022-09-14T08:38:14.252Z,20.33
2022-09-14T08:40:47.592Z,20.34
2022-09-14T08:43:25.922Z,20.38
2022-09-14T08:46:04.265Z,20.35
2022-09-14T08:48:41.524Z,20.33
2022-09-14T08:51:14.258Z,20.35
2022-09-14T08:53:47.393Z,20.38
2022-09-14T08:56:25.059Z,20.32
2022-09-14T08:59:17.561Z,20.33
2022-09-14T09:01:59.837Z,20.37
2022-09-14T09:04:42.656Z,20.34
2022-09-14T09:07:20.172Z,20.34
2022-09-14T09:09:54.428Z,20.38
2022-09-14T09:12:34.243Z,20.30
2022-09-14T09:15:18.924Z,20.30
2022-09-14T09:17:56.447Z,20.32
2022-09-14T09:20:33.592Z,20.30
2022-09-14T09:23:15.191Z,20.26
2022-09-14T09:25:54.805Z,20.24
2022-09-14T09:28:29.761Z,20.26
2022-09-14T09:31:12.662Z,20.29
2022-09-14T09:34:17.869Z,20.31
2022-09-14T09:36:50.846Z,20.36
2022-09-14T09:39:24.294Z,20.43
2022-09-14T09:41:59.096Z,20.43
2022-09-14T09:44:51.923Z,20.45
2022-09-14T09:47:32.155Z,20.46
2022-09-14T09:50:07.315Z,20.48
2022-09-14T09:52:50.504Z,20.47
2022-09-14T09:55:26.514Z,20.36
2022-09-14T09:58:22.824Z,20.34
2022-09-14T10:01:00.798Z,20.41
2022-09-14T10:03:38.064Z,20.48
2022-09-14T10:06:14.741Z,20.45
2022-09-14T10:08:48.532Z,20.48
2022-09-14T10:11:31.330Z,20.46
2022-09-14T10:14:04.780Z,20.47
2022-09-14T10:16:40.255Z,20.46
2022-09-14T10:19:16.846Z,20.49
2022-09-14T10:22:04.790Z,20.55
2022-09-14T10:24:38.681Z,20.57
2022-09-14T10:27:37.013Z,20.58
2022-09-14T10:30:15.384Z,20.63
2022-09-14T10:32:54.588Z,20.65
2022-09-14T10:35:37.552Z,20.60
2022-09-14T10:38:31.216Z,20.68
2022-09-14T10:41:26.172Z,20.70
2022-09-14T10:44:47.108Z,20.64
2022-09-14T10:48:03.360Z,20.72
2022-09-14T10:50:48.367Z,20.83
2022-09-14T10:53:35.346Z,20.81
2022-09-14T10:56:16.883Z,20.72
2022-09-14T10:59:13.544Z,20.79
2022-09-14T11:02:20.548Z,20.85
2022-09-14T11:05:05.489Z,20.89
2022-09-14T11:07:46.776Z,20.97
2022-09-14T11:10:26.107Z,20.96
2022-09-14T11:13:19.988Z,20.98
2022-09-14T11:16:00.748Z,21.04
2022-09-14T11:18:45.039Z,21.05
2022-09-14T11:21:25.005Z,21.11
2022-09-14T11:24:04.554Z,21.20
2022-09-14T11:26:42.456Z,21.41
2022-09-14T11:29:21.377Z,21.48
2022-09-14T11:32:22.750Z,21.58
2022-09-14T11:35:00.105Z,21.57
2022-09-14T11:37:41.076Z,21.66
2022-09-14T11:40:24.123Z,21.77
2022-09-14T11:42:58.808Z,21.71
2022-09-14T11:45:35.381Z,21.77
2022-09-14T11:48:43.434Z,21.99
2022-09-14T11:51:15.310Z,21.95
2022-09-14T11:53:48.311Z,21.98
2022-09-14T11:56:26.353Z,22.03
2022-09-14T11:59:01.394Z,22.13
2022-09-14T12:01:36.859Z,22.24
2022-09-14T12:04:15.423Z,22.31
2022-09-14T12:06:55.671Z,22.54
2022-09-14T12:09:54.928Z,22.67
2022-09-14T12:12:38.750Z,22.70
2022-09-14T12:15:33.710Z,22.66
2022-09-14T12:18:22.744Z,22.80
2022-09-14T12:21:03.743Z,22.95
2022-09-14T12:23:44.583Z,23.11
2022-09-14T12:26:39.459Z,23.27
2022-09-14T12:29:33.572Z,23.53
2022-09-14T12:32:23.289Z,23.65
2022-09-14T12:35:33.234Z,23.62
2022-09-14T12:38:39.231Z,23.76
2022-09-14T12:41:49.079Z,23.88
2022-09-14T12:44:38.460Z,24.02
2022-09-14T12:47:57.139Z,24.17
2022-09-14T12:50:34.885Z,24.24
2022-09-14T12:53:30.706Z,24.58
2022-09-14T12:56:06.230Z,24.71
2022-09-14T12:59:01.248Z,24.89
2022-09-14T13:01:45.589Z,25.03
2022-09-14T13:04:25.867Z,25.20
2022-09-14T13:07:01.503Z,25.26
2022-09-14T13:09:34.936Z,25.22
2022-09-14T13:12:13.983Z,25.36
2022-09-14T13:14:49.182Z,25.60
2022-09-14T13:17:24.174Z,25.62
2022-09-14T13:19:58.195Z,25.73
2022-09-14T13:22:33.193Z,25.89
2022-09-14T13:25:07.003Z,25.95
2022-09-14T13:27:41.083Z,25.93
2022-09-14T13:30:21.300Z,26.13
2022-09-14T13:32:58.905Z,26.51
2022-09-14T13:35:36.126Z,26.24
2022-09-14T13:38:14.803Z,26.47
2022-09-14T13:40:50.158Z,26.65
2022-09-14T13:43:23.984Z,26.83
2022-09-14T13:45:57.553Z,26.88
2022-09-14T13:48:32.022Z,26.92
2022-09-14T13:51:06.347Z,27.07
2022-09-14T13:53:48.486Z,27.23
2022-09-14T13:56:25.139Z,27.38
2022-09-14T13:59:20.613Z,27.53
2022-09-14T14:01:57.118Z,27.57
2022-09-14T14:04:35.484Z,27.68
2022-09-14T14:07:19.533Z,27.71
2022-09-14T14:09:54.460Z,27.64
2022-09-14T14:12:29.922Z,27.81
2022-09-14T14:15:04.707Z,27.90
2022-09-14T14:17:39.070Z,27.83
2022-09-14T14:20:34.889Z,27.86
2022-09-14T14:23:22.605Z,27.96
2022-09-14T14:26:08.164Z,28.00
2022-09-14T14:28:42.358Z,27.97
2022-09-14T14:31:18.448Z,28.05
2022-09-14T14:33:53.393Z,28.08
2022-09-14T14:36:27.467Z,28.07
2022-09-14T14:39:00.137Z,28.09
2022-09-14T14:41:32.795Z,27.97
2022-09-14T14:44:05.577Z,28.05
2022-09-14T14:46:38.231Z,28.06
2022-09-14T14:49:13.239Z,28.04
2022-09-14T14:51:48.607Z,28.04
2022-09-14T14:54:21.320Z,28.01
2022-09-14T14:56:54.489Z,28.08
2022-09-14T14:59:29.511Z,28.05
2022-09-14T15:02:02.384Z,28.05
2022-09-14T15:04:35.025Z,28.03
2022-09-14T15:07:09.097Z,27.96
2022-09-14T15:09:41.786Z,28.03
2022-09-14T15:12:14.537Z,27.99
2022-09-14T15:14:47.195Z,27.85
2022-09-14T15:17:20.142Z,27.81
2022-09-14T15:19:53.560Z,27.80
2022-09-14T15:22:27.584Z,27.78
2022-09-14T15:25:00.366Z,27.84
2022-09-14T15:27:33.214Z,27.76
2022-09-14T15:30:07.137Z,27.59
2022-09-14T15:32:40.664Z,27.62
2022-09-14T15:35:15.154Z,27.51
2022-09-14T15:37:49.651Z,27.51
2022-09-14T15:40:22.389Z,27.45
2022-09-14T15:42:54.958Z,27.50
2022-09-14T15:45:27.691Z,27.41
2022-09-14T15:48:00.328Z,27.18
2022-09-14T15:50:32.958Z,27.20
2022-09-14T15:53:06.965Z,27.14
2022-09-14T15:55:40.807Z,27.09
2022-09-14T15:58:14.084Z,27.04
2022-09-14T16:00:46.983Z,26.90
2022-09-14T16:03:19.672Z,26.95
2022-09-14T16:05:52.308Z,26.86
2022-09-14T16:08:26.353Z,26.71
2022-09-14T16:10:59.936Z,26.67
2022-09-14T16:13:34.120Z,26.55
2022-09-14T16:16:08.726Z,26.63
2022-09-14T16:18:42.573Z,26.58
2022-09-14T16:21:18.806Z,26.47
2022-09-14T16:23:54.725Z,26.50
2022-09-14T16:26:29.459Z,26.30
2022-09-14T16:29:02.088Z,26.34
2022-09-14T16:31:36.490Z,25.92
2022-09-14T16:34:12.515Z,25.61
2022-09-14T16:36:45.898Z,25.33
2022-09-14T16:39:23.466Z,25.31
2022-09-14T16:41:58.584Z,25.21
2022-09-14T16:44:31.529Z,25.00
2022-09-14T16:47:04.419Z,25.03
2022-09-14T16:49:39.298Z,25.02
2022-09-14T16:52:11.995Z,24.93
2022-09-14T16:54:45.998Z,24.80
2022-09-14T16:57:18.631Z,24.64
2022-09-14T16:59:51.407Z,24.65
2022-09-14T17:02:24.095Z,24.49
2022-09-14T17:04:56.948Z,24.17
2022-09-14T17:07:29.907Z,24.24
2022-09-14T17:10:04.246Z,24.15
2022-09-14T17:12:37.041Z,24.19
2022-09-14T17:15:11.241Z,24.22
2022-09-14T17:17:43.849Z,24.19
2022-09-14T17:20:16.763Z,24.04
2022-09-14T17:22:49.265Z,23.98
2022-09-14T17:25:24.295Z,23.99
2022-09-14T17:27:56.973Z,23.88
2022-09-14T17:30:29.748Z,23.79
2022-09-14T17:33:02.430Z,23.58
2022-09-14T17:35:35.168Z,23.44
2022-09-14T17:38:07.819Z,23.60
2022-09-14T17:40:41.891Z,23.66
2022-09-14T17:43:15.316Z,23.43
2022-09-14T17:45:53.351Z,23.40
2022-09-14T17:48:27.580Z,23.47
2022-09-14T17:51:00.495Z,23.35
2022-09-14T17:53:37.117Z,23.31
2022-09-14T17:56:14.130Z,23.04
2022-09-14T17:58:48.746Z,23.08
2022-09-14T18:01:24.280Z,23.22
2022-09-14T18:03:59.296Z,23.06
2022-09-14T18:06:35.692Z,22.95
2022-09-14T18:09:13.491Z,23.07
2022-09-14T18:11:48.306Z,23.05
2022-09-14T18:14:21.019Z,22.95
2022-09-14T18:16:53.941Z,22.86
2022-09-14T18:19:26.800Z,22.84
2022-09-14T18:21:59.669Z,22.66
2022-09-14T18:24:32.652Z,22.57
2022-09-14T18:27:06.995Z,22.47
2022-09-14T18:29:40.147Z,22.44
2022-09-14T18:32:12.869Z,22.33
2022-09-14T18:34:45.678Z,22.30
2022-09-14T18:37:18.852Z,22.19
2022-09-14T18:39:51.623Z,22.19
2022-09-14T18:42:25.804Z,22.19
2022-09-14T18:44:58.633Z,22.09
2022-09-14T18:47:31.460Z,22.02
2022-09-14T18:50:05.107Z,21.90
2022-09-14T18:52:37.907Z,21.76
2022-09-14T18:55:10.737Z,21.72
2022-09-14T18:57:48.211Z,21.71
2022-09-14T19:00:21.187Z,21.72
2022-09-14T19:02:54.591Z,21.61
2022-09-14T19:05:29.953Z,21.50
2022-09-14T19:08:03.131Z,21.45
2022-09-14T19:10:38.040Z,21.31
2022-09-14T19:13:12.185Z,21.28
2022-09-14T19:15:44.948Z,21.22
2022-09-14T19:18:17.851Z,21.10
2022-09-14T19:21:05.785Z,21.18
2022-09-14T19:23:40.349Z,21.12
2022-09-14T19:26:17.265Z,21.07
2022-09-14T19:28:51.382Z,20.97
2022-09-14T19:31:24.486Z,21.03
2022-09-14T19:33:57.631Z,20.94
2022-09-14T19:36:31.251Z,20.88
2022-09-14T19:39:05.703Z,20.78
2022-09-14T19:41:39.574Z,20.83
2022-09-14T19:44:14.301Z,20.86
2022-09-14T19:46:47.172Z,20.75
2022-09-14T19:49:21.072Z,20.63
2022-09-14T19:51:54.805Z,20.54
2022-09-14T19:54:27.659Z,20.57
2022-09-14T19:57:01.023Z,20.56
2022-09-14T19:59:35.179Z,20.49
2022-09-14T20:02:10.948Z,20.51
2022-09-14T20:04:44.074Z,20.59
2022-09-14T20:07:16.584Z,20.48
2022-09-14T20:09:49.369Z,20.43
2022-09-14T20:12:22.058Z,20.42
2022-09-14T20:14:56.108Z,20.34
2022-09-14T20:17:28.774Z,20.32
2022-09-14T20:20:01.518Z,20.24
2022-09-14T20:22:34.193Z,20.13
2022-09-14T20:25:07.687Z,20.21
2022-09-14T20:27:40.590Z,20.11
2022-09-14T20:30:15.129Z,20.22
2022-09-14T20:32:47.891Z,20.38
2022-09-14T20:35:20.936Z,20.45
2022-09-14T20:37:53.420Z,20.44
2022-09-14T20:40:26.418Z,20.41
2022-09-14T20:42:59.295Z,20.39
2022-09-14T20:45:33.315Z,20.43
2022-09-14T20:48:06.036Z,20.42
2022-09-14T20:50:38.826Z,20.35
2022-09-14T20:53:11.485Z,20.38
2022-09-14T20:55:44.254Z,20.35
2022-09-14T20:58:17.001Z,20.33
2022-09-14T21:01:00.837Z,20.31
2022-09-14T21:03:34.287Z,20.29
2022-09-14T21:06:08.506Z,20.29
2022-09-14T21:08:42.430Z,20.26
2022-09-14T21:11:17.660Z,20.25
2022-09-14T21:13:51.789Z,20.21
2022-09-14T21:16:28.311Z,20.20
2022-09-14T21:19:02.869Z,20.21
2022-09-14T21:21:36.013Z,20.15
2022-09-14T21:24:10.570Z,20.13
2022-09-14T21:26:44.116Z,20.09
2022-09-14T21:29:23.765Z,20.14
2022-09-14T21:31:58.143Z,20.07
2022-09-14T21:34:31.405Z,20.07
2022-09-14T21:37:04.068Z,20.07
2022-09-14T21:39:37.994Z,20.09
2022-09-14T21:42:11.091Z,20.09
2022-09-14T21:44:43.763Z,20.09
2022-09-14T21:47:17.716Z,20.08
2022-09-14T21:49:50.695Z,20.08
2022-09-14T21:52:23.437Z,20.04
2022-09-14T21:54:56.294Z,20.00
2022-09-14T21:57:28.894Z,20.06
2022-09-14T22:00:01.721Z,20.04
2022-09-14T22:02:35.878Z,20.02
2022-09-14T22:05:09.203Z,19.98
2022-09-14T22:07:42.309Z,20.10
2022-09-14T22:10:15.106Z,20.11
2022-09-14T22:12:48.561Z,20.14
2022-09-14T22:15:21.266Z,20.21
2022-09-14T22:17:57.494Z,20.15
2022-09-14T22:20:32.275Z,20.20
2022-09-14T22:23:05.044Z,20.18
2022-09-14T22:25:42.511Z,20.24
2022-09-14T22:28:15.171Z,20.22
2022-09-14T22:30:49.265Z,20.15
2022-09-14T22:33:24.815Z,20.20
2022-09-14T22:35:59.024Z,20.15
2022-09-14T22:38:34.118Z,20.15
2022-09-14T22:41:10.378Z,20.05
2022-09-14T22:43:44.494Z,20.05
2022-09-14T22:46:18.480Z,20.02
2022-09-14T22:48:53.343Z,20.03
2022-09-14T22:51:28.552Z,20.02
2022-09-14T22:54:02.179Z,19.99
2022-09-14T22:56:37.916Z,20.02
2022-09-14T22:59:11.384Z,20.00
2022-09-14T23:01:44.070Z,19.94
2022-09-14T23:04:18.194Z,19.87
2022-09-14T23:06:50.987Z,19.87
2022-09-14T23:09:24.110Z,19.83
2022-09-14T23:11:56.727Z,19.82
2022-09-14T23:14:29.537Z,19.85
2022-09-14T23:17:02.232Z,19.83
2022-09-14T23:19:36.293Z,19.74
2022-09-14T23:22:08.941Z,19.71
2022-09-14T23:24:42.957Z,19.70
2022-09-14T23:27:15.629Z,19.66
2022-09-14T23:29:48.329Z,19.64
2022-09-14T23:32:21.076Z,19.66
2022-09-14T23:34:55.204Z,19.66
2022-09-14T23:37:27.904Z,19.63
2022-09-14T23:40:00.795Z,19.67
2022-09-14T23:42:33.646Z,19.63
2022-09-14T23:45:07.588Z,19.60
2022-09-14T23:47:40.383Z,19.59
2022-09-14T23:50:14.395Z,19.71
2022-09-14T23:52:47.328Z,19.63
2022-09-14T23:55:19.978Z,19.57
2022-09-14T23:57:52.808Z,19.52
